createdAt,value
2018-11-14T00:00:35.355Z,102360.31
2018-11-14T00:03:04.843Z,102363.58
2018-11-14T00:05:34.627Z,102356.91
2018-11-14T00:08:04.230Z,102360.25
2018-11-14T00:10:33.494Z,102363.44
2018-11-14T00:13:03.021Z,102359.55
2018-11-14T00:15:32.515Z,102359.41
2018-11-14T00:18:02.044Z,102354.27
2018-11-14T00:20:31.543Z,102362.80
2018-11-14T00:23:01.024Z,102357.14
2018-11-14T00:25:30.556Z,102347.38
2018-11-14T00:28:00.394Z,102355.22
2018-11-14T00:30:29.341Z,102366.14
2018-11-14T00:32:58.916Z,102363.94
2018-11-14T00:35:28.880Z,102365.33
2018-11-14T00:37:58.261Z,102352.78
2018-11-14T00:40:27.815Z,102361.39
2018-11-14T00:42:57.714Z,102364.49
2018-11-14T00:45:27.401Z,102366.42
2018-11-14T00:47:56.889Z,102359.97
2018-11-14T00:50:26.414Z,102358.72
2018-11-14T00:52:55.659Z,102362.83
2018-11-14T00:55:25.419Z,102362.80
2018-11-14T00:57:54.927Z,102358.46
2018-11-14T01:00:25.565Z,102356.92
2018-11-14T01:02:55.371Z,102360.07
2018-11-14T01:05:24.881Z,102365.95
2018-11-14T01:07:54.481Z,102358.56
2018-11-14T01:10:23.908Z,102357.82
2018-11-14T01:12:53.356Z,102357.69
2018-11-14T01:15:23.735Z,102361.89
2018-11-14T01:17:52.994Z,102357.08
2018-11-14T01:20:23.425Z,102365.65
2018-11-14T01:22:52.849Z,102361.42
2018-11-14T01:25:22.339Z,102358.42
2018-11-14T01:27:51.646Z,102347.77
2018-11-14T01:30:23.238Z,102354.05
2018-11-14T01:32:53.584Z,102346.41
2018-11-14T01:35:23.099Z,102353.25
2018-11-14T01:37:52.547Z,102355.73
2018-11-14T01:40:24.223Z,102351.07
2018-11-14T01:42:56.150Z,102342.07
2018-11-14T01:45:25.774Z,102337.89
2018-11-14T01:47:55.039Z,102342.39
2018-11-14T01:50:24.803Z,102336.58
2018-11-14T01:52:54.283Z,102337.28
2018-11-14T01:55:23.762Z,102341.23
2018-11-14T01:57:53.315Z,102335.29
2018-11-14T02:00:24.263Z,102334.48
2018-11-14T02:02:54.018Z,102337.09
2018-11-14T02:05:23.655Z,102342.25
2018-11-14T02:07:52.945Z,102352.91
2018-11-14T02:10:22.455Z,102346.70
2018-11-14T02:12:51.655Z,102354.72
2018-11-14T02:15:23.027Z,102351.09
2018-11-14T02:17:53.013Z,102347.59
2018-11-14T02:20:22.327Z,102352.81
2018-11-14T02:22:51.823Z,102352.85
2018-11-14T02:25:22.097Z,102354.06
2018-11-14T02:27:51.377Z,102348.02
2018-11-14T02:30:22.276Z,102346.01
2018-11-14T02:32:51.720Z,102344.69
2018-11-14T02:35:22.104Z,102344.97
2018-11-14T02:37:51.326Z,102344.80
2018-11-14T02:40:22.176Z,102344.84
2018-11-14T02:42:52.111Z,102347.48
2018-11-14T02:45:22.025Z,102342.09
2018-11-14T02:47:53.122Z,102342.42
2018-11-14T02:50:23.031Z,102343.98
2018-11-14T02:52:52.611Z,102337.50
2018-11-14T02:55:22.200Z,102334.91
2018-11-14T02:57:51.663Z,102344.69
2018-11-14T03:00:22.585Z,102337.44
2018-11-14T03:02:52.525Z,102331.41
2018-11-14T03:05:22.042Z,102330.27
2018-11-14T03:07:51.868Z,102335.46
2018-11-14T03:10:22.075Z,102333.00
2018-11-14T03:12:51.336Z,102330.91
2018-11-14T03:15:22.332Z,102321.89
2018-11-14T03:17:52.014Z,102318.55
2018-11-14T03:20:22.336Z,102320.38
2018-11-14T03:22:51.628Z,102312.64
2018-11-14T03:25:21.350Z,102314.23
2018-11-14T03:27:50.590Z,102313.56
2018-11-14T03:30:20.138Z,102310.94
2018-11-14T03:32:49.348Z,102305.13
2018-11-14T03:35:18.720Z,102305.55
2018-11-14T03:37:48.247Z,102309.33
2018-11-14T03:40:18.033Z,102304.29
2018-11-14T03:42:47.360Z,102304.45
2018-11-14T03:45:16.603Z,102300.75
2018-11-14T03:47:46.593Z,102300.91
2018-11-14T03:50:15.795Z,102301.75
2018-11-14T03:52:45.018Z,102300.14
2018-11-14T03:55:14.212Z,102306.67
2018-11-14T03:57:43.458Z,102306.89
2018-11-14T04:00:16.026Z,102309.11
2018-11-14T04:02:46.373Z,102315.31
2018-11-14T04:05:15.677Z,102308.02
2018-11-14T04:07:44.931Z,102312.45
2018-11-14T04:10:14.682Z,102307.31
2018-11-14T04:12:44.180Z,102300.88
2018-11-14T04:15:14.347Z,102292.59
2018-11-14T04:17:43.622Z,102291.41
2018-11-14T04:20:15.164Z,102290.09
2018-11-14T04:22:44.576Z,102285.27
2018-11-14T04:25:15.371Z,102281.55
2018-11-14T04:27:45.260Z,102287.55
2018-11-14T04:30:17.361Z,102286.59
2018-11-14T04:32:46.586Z,102294.93
2018-11-14T04:35:16.688Z,102294.56
2018-11-14T04:37:45.928Z,102303.66
2018-11-14T04:40:17.325Z,102302.24
2018-11-14T04:42:46.544Z,102242.91
2018-11-14T04:45:18.243Z,102293.35
2018-11-14T04:47:47.587Z,102290.38
2018-11-14T04:50:18.655Z,102286.54
2018-11-14T04:52:48.672Z,102282.66
2018-11-14T04:55:18.964Z,102271.13
2018-11-14T04:57:48.504Z,102272.57
2018-11-14T05:00:18.746Z,102279.31
2018-11-14T05:02:48.660Z,102271.84
2018-11-14T05:05:19.020Z,102265.68
2018-11-14T05:07:48.292Z,102266.39
2018-11-14T05:10:19.691Z,102261.89
2018-11-14T05:12:49.199Z,102258.71
2018-11-14T05:15:19.853Z,102254.77
2018-11-14T05:17:49.575Z,102245.73
2018-11-14T05:20:19.697Z,102247.44
2018-11-14T05:22:49.228Z,102248.47
2018-11-14T05:25:18.737Z,102251.39
2018-11-14T05:27:48.011Z,102247.16
2018-11-14T05:30:20.278Z,102254.47
2018-11-14T05:32:50.123Z,102247.66
2018-11-14T05:35:19.364Z,102257.44
2018-11-14T05:37:48.967Z,102259.91
2018-11-14T05:40:19.517Z,102262.38
2018-11-14T05:42:49.179Z,102256.08
2018-11-14T05:45:21.882Z,102262.16
2018-11-14T05:47:51.011Z,102270.65
2018-11-14T05:50:21.407Z,102272.18
2018-11-14T05:52:50.688Z,102276.91
2018-11-14T05:55:19.982Z,102269.16
2018-11-14T05:57:49.219Z,102268.89
2018-11-14T06:00:31.368Z,102274.33
2018-11-14T06:03:01.862Z,102274.66
2018-11-14T06:05:31.213Z,102279.53
2018-11-14T06:08:00.760Z,102274.03
2018-11-14T06:10:30.607Z,102272.84
2018-11-14T06:13:00.318Z,102275.35
2018-11-14T06:15:29.871Z,102268.59
2018-11-14T06:17:59.494Z,102270.63
2018-11-14T06:20:28.820Z,102272.16
2018-11-14T06:22:58.382Z,102268.78
2018-11-14T06:25:36.218Z,102268.89
2018-11-14T06:28:08.063Z,102270.75
2018-11-14T06:30:38.925Z,102270.75
2018-11-14T06:33:09.896Z,102277.53
2018-11-14T06:35:39.625Z,102272.60
2018-11-14T06:38:08.920Z,102282.08
2018-11-14T06:40:38.774Z,102274.78
2018-11-14T06:43:08.384Z,102270.15
2018-11-14T06:45:37.626Z,102279.89
2018-11-14T06:48:07.570Z,102278.34
2018-11-14T06:50:36.833Z,102278.25
2018-11-14T06:53:07.195Z,102282.41
2018-11-14T06:55:36.647Z,102277.20
2018-11-14T06:58:06.167Z,102274.78
2018-11-14T07:00:36.290Z,102283.20
2018-11-14T07:03:07.144Z,102293.65
2018-11-14T07:05:36.358Z,102302.44
2018-11-14T07:08:06.303Z,102302.79
2018-11-14T07:10:37.114Z,102301.45
2018-11-14T07:13:10.603Z,102309.02
2018-11-14T07:15:40.895Z,102306.11
2018-11-14T07:18:11.640Z,102307.22
2018-11-14T07:20:42.881Z,102304.34
2018-11-14T07:23:12.287Z,102301.02
2018-11-14T07:25:41.774Z,102300.48
2018-11-14T07:28:11.039Z,102301.20
2018-11-14T07:30:40.384Z,102301.69
2018-11-14T07:33:10.933Z,102295.86
2018-11-14T07:35:40.482Z,102294.64
2018-11-14T07:38:47.454Z,102295.87
2018-11-14T07:41:21.946Z,102290.73
2018-11-14T07:43:51.597Z,102286.12
2018-11-14T07:46:21.682Z,102279.86
2018-11-14T07:48:51.816Z,102284.68
2018-11-14T07:51:21.629Z,102284.85
2018-11-14T07:53:51.394Z,102290.59
2018-11-14T07:56:21.155Z,102290.06
2018-11-14T07:58:50.595Z,102296.30
2018-11-14T08:01:19.919Z,102291.30
2018-11-14T08:03:49.699Z,102289.66
2018-11-14T08:06:20.369Z,102301.97
2018-11-14T08:08:50.254Z,102262.12
2018-11-14T08:11:19.538Z,102308.13
2018-11-14T08:13:49.891Z,102309.09
2018-11-14T08:16:19.809Z,102308.41
2018-11-14T08:18:49.436Z,102308.70
2018-11-14T08:21:19.024Z,102302.62
2018-11-14T08:23:49.093Z,102306.05
2018-11-14T08:26:18.425Z,102302.02
2018-11-14T08:28:48.141Z,102299.96
2018-11-14T08:31:18.354Z,102296.83
2018-11-14T08:33:50.609Z,102303.03
2018-11-14T08:36:19.821Z,102299.81
2018-11-14T08:38:49.449Z,102296.34
2018-11-14T08:41:19.118Z,102302.75
2018-11-14T08:43:48.688Z,102293.87
2018-11-14T08:46:18.748Z,102299.09
2018-11-14T08:48:48.279Z,102298.13
2018-11-14T08:51:18.380Z,102299.38
2018-11-14T08:53:47.894Z,102306.91
2018-11-14T08:56:17.404Z,102306.54
2018-11-14T08:58:47.326Z,102308.72
2018-11-14T09:01:16.832Z,102293.89
2018-11-14T09:03:46.684Z,102295.23
2018-11-14T09:06:16.127Z,102295.55
2018-11-14T09:08:45.558Z,102299.56
2018-11-14T09:11:15.131Z,102307.31
2018-11-14T09:13:44.599Z,102308.25
2018-11-14T09:16:14.907Z,102309.09
2018-11-14T09:18:44.151Z,102316.58
2018-11-14T09:21:13.617Z,102308.52
2018-11-14T09:23:43.056Z,102309.56
2018-11-14T09:26:12.722Z,102308.11
2018-11-14T09:28:42.006Z,102315.23
2018-11-14T09:31:11.956Z,102311.13
2018-11-14T09:33:41.623Z,102305.66
2018-11-14T09:36:11.582Z,102313.31
2018-11-14T09:38:40.839Z,102304.02
2018-11-14T09:41:10.116Z,102307.64
2018-11-14T09:43:39.828Z,102311.56
2018-11-14T09:46:09.370Z,102297.20
2018-11-14T09:48:39.471Z,102288.69
2018-11-14T09:51:09.140Z,102284.83
2018-11-14T09:53:38.715Z,102278.14
2018-11-14T09:56:08.186Z,102274.86
2018-11-14T09:58:37.522Z,102282.41
2018-11-14T10:01:06.832Z,102280.67
2018-11-14T10:03:36.348Z,102274.61
2018-11-14T10:06:06.099Z,102274.47
2018-11-14T10:08:35.502Z,102268.55
2018-11-14T10:11:04.817Z,102275.23
2018-11-14T10:13:34.285Z,102260.94
2018-11-14T10:16:03.606Z,102263.38
2018-11-14T10:18:33.207Z,102262.05
2018-11-14T10:21:02.651Z,102252.88
2018-11-14T10:23:32.155Z,102265.45
2018-11-14T10:26:01.659Z,102269.20
2018-11-14T10:28:31.158Z,102257.70
2018-11-14T10:31:00.882Z,102251.16
2018-11-14T10:33:30.355Z,102243.17
2018-11-14T10:36:00.540Z,102249.27
2018-11-14T10:38:29.766Z,102241.84
2018-11-14T10:40:59.653Z,102234.63
2018-11-14T10:43:29.599Z,102244.55
2018-11-14T10:45:59.111Z,102235.08
2018-11-14T10:48:28.612Z,102232.75
2018-11-14T10:50:58.155Z,102226.30
2018-11-14T10:53:27.626Z,102220.70
2018-11-14T10:55:57.099Z,102213.84
2018-11-14T10:58:26.475Z,102209.60
2018-11-14T11:01:01.388Z,102213.94
2018-11-14T11:03:40.070Z,102212.63
2018-11-14T11:06:14.361Z,102207.75
2018-11-14T11:08:48.844Z,102214.06
2018-11-14T11:11:19.819Z,102206.92
2018-11-14T11:14:20.423Z,102206.70
2018-11-14T11:16:55.163Z,102199.23
2018-11-14T11:19:31.686Z,102197.83
2018-11-14T11:22:01.213Z,102201.52
2018-11-14T11:24:30.438Z,102203.13
2018-11-14T11:26:59.675Z,102190.88
2018-11-14T11:29:29.962Z,102188.52
2018-11-14T11:31:59.412Z,102186.19
2018-11-14T11:34:28.757Z,102178.20
2018-11-14T11:36:58.039Z,102170.97
2018-11-14T11:39:27.498Z,102160.45
2018-11-14T11:41:56.832Z,102161.99
2018-11-14T11:44:26.538Z,102153.65
2018-11-14T11:46:56.066Z,102146.62
2018-11-14T11:49:25.570Z,102148.27
2018-11-14T11:51:55.092Z,102143.35
2018-11-14T11:54:25.043Z,102146.77
2018-11-14T11:56:54.499Z,102143.05
2018-11-14T11:59:23.993Z,102139.44
2018-11-14T12:01:53.467Z,102138.92
2018-11-14T12:04:23.006Z,102138.03
2018-11-14T12:06:52.487Z,102136.03
2018-11-14T12:09:21.788Z,102125.05
2018-11-14T12:11:51.107Z,102123.90
2018-11-14T12:14:20.576Z,102120.53
2018-11-14T12:16:50.198Z,102122.62
2018-11-14T12:19:19.666Z,102118.84
2018-11-14T12:21:49.098Z,102127.87
2018-11-14T12:24:18.663Z,102124.30
2018-11-14T12:26:48.363Z,102121.27
2018-11-14T12:29:17.815Z,102113.00
2018-11-14T12:31:47.315Z,102113.31
2018-11-14T12:34:16.850Z,102109.62
2018-11-14T12:36:46.327Z,102103.12
2018-11-14T12:39:16.081Z,102106.44
2018-11-14T12:41:45.587Z,102110.50
2018-11-14T12:44:16.291Z,102110.84
2018-11-14T12:46:46.040Z,102111.87
2018-11-14T12:49:15.572Z,102110.06
2018-11-14T12:51:45.009Z,102105.40
2018-11-14T12:54:14.590Z,102105.28
2018-11-14T12:56:43.805Z,102096.84
2018-11-14T12:59:14.665Z,102095.96
2018-11-14T13:01:43.894Z,102095.42
2018-11-14T13:04:13.783Z,102091.59
2018-11-14T13:06:43.334Z,102088.45
2018-11-14T13:09:12.848Z,102086.88
2018-11-14T13:11:42.289Z,102094.13
2018-11-14T13:14:12.032Z,102090.49
2018-11-14T13:16:41.585Z,102087.98
2018-11-14T13:19:10.816Z,102091.50
2018-11-14T13:21:40.163Z,102087.52
2018-11-14T13:24:09.603Z,102086.89
2018-11-14T13:26:39.149Z,102087.98
2018-11-14T13:29:08.622Z,102097.39
2018-11-14T13:31:38.334Z,102095.00
2018-11-14T13:34:07.899Z,102093.17
2018-11-14T13:36:37.800Z,102085.70
2018-11-14T13:39:08.991Z,102085.77
2018-11-14T13:41:38.255Z,102080.69
2018-11-14T13:44:07.712Z,102084.04
2018-11-14T13:46:37.208Z,102083.53
2018-11-14T13:49:06.476Z,102080.13
2018-11-14T13:51:35.794Z,102076.86
2018-11-14T13:54:05.707Z,102075.80
2018-11-14T13:56:35.053Z,102074.84
2018-11-14T13:59:04.503Z,102079.13
2018-11-14T14:01:34.027Z,102076.95
2018-11-14T14:04:03.680Z,102082.52
2018-11-14T14:06:33.471Z,102086.41
2018-11-14T14:09:02.999Z,102085.95
2018-11-14T14:11:32.482Z,102086.29
2018-11-14T14:14:07.231Z,102087.37
2018-11-14T14:16:37.040Z,102077.83
2018-11-14T14:19:07.245Z,102081.66
2018-11-14T14:21:36.683Z,102077.30
2018-11-14T14:24:06.553Z,102075.83
2018-11-14T14:26:36.867Z,102078.34
2018-11-14T14:29:07.243Z,102076.05
2018-11-14T14:31:37.106Z,102079.31
2018-11-14T14:34:07.125Z,102084.77
2018-11-14T14:36:36.503Z,102087.66
2018-11-14T14:39:09.159Z,102084.42
2018-11-14T14:41:39.199Z,102087.90
2018-11-14T14:44:08.694Z,102087.91
2018-11-14T14:46:38.264Z,102087.67
2018-11-14T14:49:07.782Z,102087.75
2018-11-14T14:51:37.228Z,102091.88
2018-11-14T14:54:06.739Z,102091.83
2018-11-14T14:56:36.007Z,102088.00
2018-11-14T14:59:06.616Z,102091.74
2018-11-14T15:01:36.100Z,102086.69
2018-11-14T15:04:05.999Z,102089.47
2018-11-14T15:06:35.470Z,102083.86
2018-11-14T15:09:07.530Z,102079.92
2018-11-14T15:11:36.771Z,102079.26
2018-11-14T15:14:06.676Z,102074.80
2018-11-14T15:16:36.652Z,102077.80
2018-11-14T15:19:06.800Z,102071.42
2018-11-14T15:21:36.440Z,102071.05
2018-11-14T15:24:06.724Z,102063.34
2018-11-14T15:26:36.230Z,102064.98
2018-11-14T15:29:06.265Z,102053.08
2018-11-14T15:31:35.646Z,102060.10
2018-11-14T15:34:05.827Z,102057.37
2018-11-14T15:36:35.479Z,102059.64
2018-11-14T15:39:07.590Z,102058.51
2018-11-14T15:41:36.839Z,102056.55
2018-11-14T15:44:06.352Z,102059.11
2018-11-14T15:46:35.646Z,102061.77
2018-11-14T15:49:05.906Z,102061.17
2018-11-14T15:51:35.517Z,102058.11
2018-11-14T15:54:05.442Z,102054.53
2018-11-14T15:56:34.780Z,102050.22
2018-11-14T15:59:04.663Z,102054.72
2018-11-14T16:01:34.021Z,102051.77
2018-11-14T16:04:03.518Z,102050.50
2018-11-14T16:06:33.035Z,102054.53
2018-11-14T16:09:02.563Z,102054.04
2018-11-14T16:11:36.713Z,102053.41
2018-11-14T16:14:06.398Z,102049.75
2018-11-14T16:16:35.763Z,102048.93
2018-11-14T16:19:05.735Z,102049.66
2018-11-14T16:21:34.979Z,102049.56
2018-11-14T16:24:04.573Z,102038.62
2018-11-14T16:26:34.718Z,102044.30
2018-11-14T16:29:04.174Z,102043.80
2018-11-14T16:31:33.639Z,102041.09
2018-11-14T16:34:02.820Z,102048.98
2018-11-14T16:36:32.623Z,102050.72
2018-11-14T16:39:02.166Z,102051.48
2018-11-14T16:41:31.799Z,102051.09
2018-11-14T16:44:01.552Z,102045.79
2018-11-14T16:46:31.750Z,102046.06
2018-11-14T16:49:01.203Z,102050.37
2018-11-14T16:51:31.348Z,102049.59
2018-11-14T16:54:00.788Z,102048.27
2018-11-14T16:56:30.323Z,102044.09
2018-11-14T16:58:59.795Z,102047.91
2018-11-14T17:01:29.052Z,102048.00
2018-11-14T17:03:58.834Z,102048.06
2018-11-14T17:06:28.922Z,102049.59
2018-11-14T17:08:58.471Z,102049.98
2018-11-14T17:11:27.754Z,102042.53
2018-11-14T17:13:57.074Z,102045.36
2018-11-14T17:16:26.550Z,102042.14
2018-11-14T17:18:56.091Z,102039.99
2018-11-14T17:21:25.518Z,102041.33
2018-11-14T17:23:55.058Z,102038.47
2018-11-14T17:26:24.532Z,102044.72
2018-11-14T17:28:54.660Z,102038.77
2018-11-14T17:31:24.435Z,102037.53
2018-11-14T17:33:54.372Z,102037.36
2018-11-14T17:36:23.807Z,102036.62
2018-11-14T17:38:53.313Z,102043.40
2018-11-14T17:41:23.151Z,102047.73
2018-11-14T17:43:52.603Z,102048.88
2018-11-14T17:46:21.851Z,102049.83
2018-11-14T17:48:51.130Z,102052.59
2018-11-14T17:51:20.379Z,102056.91
2018-11-14T17:53:49.622Z,102053.66
2018-11-14T17:56:19.035Z,102050.45
2018-11-14T17:58:48.277Z,102049.30
2018-11-14T18:01:17.632Z,102053.45
2018-11-14T18:03:47.365Z,102056.45
2018-11-14T18:06:16.857Z,102061.06
2018-11-14T18:08:46.351Z,102055.20
2018-11-14T18:11:15.900Z,102060.03
2018-11-14T18:13:45.385Z,102056.84
2018-11-14T18:16:14.842Z,102061.35
2018-11-14T18:18:44.374Z,102064.30
2018-11-14T18:21:13.884Z,102060.61
2018-11-14T18:23:43.378Z,102052.77
2018-11-14T18:26:13.135Z,102051.47
2018-11-14T18:28:43.415Z,102050.31
2018-11-14T18:31:13.124Z,102056.05
2018-11-14T18:33:42.836Z,101998.31
2018-11-14T18:36:12.962Z,102060.20
2018-11-14T18:38:42.880Z,102043.57
2018-11-14T18:41:12.355Z,102061.13
2018-11-14T18:43:42.343Z,102057.48
2018-11-14T18:46:11.624Z,102052.84
2018-11-14T18:48:41.640Z,102048.39
2018-11-14T18:51:11.428Z,102050.54
2018-11-14T18:53:45.175Z,102047.14
2018-11-14T18:56:14.734Z,102049.41
2018-11-14T18:58:44.664Z,102051.51
2018-11-14T19:01:14.167Z,102052.38
2018-11-14T19:03:44.126Z,102045.97
2018-11-14T19:06:14.230Z,102049.92
2018-11-14T19:08:44.199Z,102049.51
2018-11-14T19:11:13.625Z,102046.87
2018-11-14T19:13:43.587Z,102043.80
2018-11-14T19:16:13.062Z,102043.33
2018-11-14T19:18:42.673Z,102039.14
2018-11-14T19:21:12.255Z,102039.22
2018-11-14T19:23:43.659Z,102039.45
2018-11-14T19:26:13.113Z,102041.66
2018-11-14T19:28:42.877Z,102039.34
2018-11-14T19:31:12.724Z,102042.11
2018-11-14T19:33:42.239Z,102043.50
2018-11-14T19:36:11.952Z,102051.84
2018-11-14T19:38:41.435Z,102046.57
2018-11-14T19:41:11.002Z,102041.17
2018-11-14T19:43:40.455Z,102039.45
2018-11-14T19:46:09.950Z,102040.87
2018-11-14T19:48:39.322Z,102044.14
2018-11-14T19:51:09.154Z,102044.59
2018-11-14T19:53:39.317Z,102043.20
2018-11-14T19:56:09.393Z,102049.41
2018-11-14T19:58:38.979Z,102045.89
2018-11-14T20:01:08.363Z,102043.13
2018-11-14T20:03:38.040Z,102039.55
2018-11-14T20:06:07.487Z,102023.98
2018-11-14T20:08:36.927Z,102037.85
2018-11-14T20:11:06.354Z,102037.05
2018-11-14T20:13:35.912Z,102028.45
2018-11-14T20:16:05.515Z,102032.96
2018-11-14T20:18:34.924Z,102034.03
2018-11-14T20:21:04.470Z,102045.12
2018-11-14T20:23:33.729Z,102037.98
2018-11-14T20:26:03.281Z,102044.24
2018-11-14T20:28:32.789Z,102042.55
2018-11-14T20:31:02.087Z,102044.50
2018-11-14T20:33:31.551Z,102048.65
2018-11-14T20:36:01.093Z,102042.36
2018-11-14T20:38:30.429Z,102043.28
2018-11-14T20:41:00.084Z,102042.13
2018-11-14T20:43:29.589Z,102044.59
2018-11-14T20:45:59.291Z,102040.58
2018-11-14T20:48:28.785Z,102045.66
2018-11-14T20:50:58.312Z,102040.61
2018-11-14T20:53:27.819Z,102040.92
2018-11-14T20:55:57.290Z,102041.23
2018-11-14T20:58:27.096Z,102046.02
2018-11-14T21:00:56.530Z,102038.79
2018-11-14T21:03:26.119Z,102035.56
2018-11-14T21:05:55.553Z,102038.81
2018-11-14T21:08:24.819Z,102038.50
2018-11-14T21:10:54.705Z,102038.22
2018-11-14T21:13:24.298Z,101972.18
2018-11-14T21:15:54.287Z,102029.73
2018-11-14T21:18:23.698Z,102033.70
2018-11-14T21:20:53.152Z,102035.58
2018-11-14T21:23:22.718Z,102043.00
2018-11-14T21:25:52.160Z,102032.38
2018-11-14T21:28:21.898Z,102028.68
2018-11-14T21:30:51.377Z,102030.76
2018-11-14T21:33:21.372Z,102043.05
2018-11-14T21:35:51.011Z,102041.16
2018-11-14T21:38:20.562Z,102036.48
2018-11-14T21:40:50.028Z,102032.80
2018-11-14T21:43:19.596Z,102031.52
2018-11-14T21:45:49.034Z,102030.23
2018-11-14T21:48:18.898Z,102030.68
2018-11-14T21:50:48.438Z,102025.36
2018-11-14T21:53:17.843Z,102027.20
2018-11-14T21:55:47.866Z,102020.98
2018-11-14T21:58:17.553Z,102035.72
2018-11-14T22:00:47.165Z,102016.72
2018-11-14T22:03:16.631Z,102022.92
2018-11-14T22:05:46.103Z,102027.61
2018-11-14T22:08:15.679Z,102019.94
2018-11-14T22:10:45.264Z,102013.66
2018-11-14T22:13:14.805Z,102023.63
2018-11-14T22:15:44.330Z,102028.98
2018-11-14T22:18:13.824Z,102032.46
2018-11-14T22:20:43.342Z,102026.29
2018-11-14T22:23:13.042Z,102025.34
2018-11-14T22:25:42.541Z,102030.38
2018-11-14T22:28:12.287Z,102023.52
2018-11-14T22:30:41.985Z,102024.38
2018-11-14T22:33:11.480Z,102028.71
2018-11-14T22:35:41.040Z,102030.92
2018-11-14T22:38:10.283Z,102028.44
2018-11-14T22:40:39.799Z,102030.16
2018-11-14T22:43:09.274Z,102036.58
2018-11-14T22:45:38.639Z,102036.58
2018-11-14T22:48:08.088Z,102029.97
2018-11-14T22:50:37.581Z,102036.71
2018-11-14T22:53:07.120Z,102035.57
2018-11-14T22:55:36.628Z,102031.22
2018-11-14T22:58:06.153Z,102027.81
2018-11-14T23:00:40.842Z,102034.41
2018-11-14T23:03:10.101Z,102035.62
2018-11-14T23:05:39.348Z,102040.36
2018-11-14T23:08:08.592Z,102025.50
2018-11-14T23:10:37.951Z,102033.20
2018-11-14T23:13:07.492Z,102044.60
2018-11-14T23:15:37.026Z,102038.90
2018-11-14T23:18:06.672Z,102044.84
2018-11-14T23:20:36.150Z,102044.48
2018-11-14T23:23:06.729Z,102040.59
2018-11-14T23:25:36.220Z,102038.00
2018-11-14T23:28:06.066Z,102034.35
2018-11-14T23:30:35.401Z,102037.92
2018-11-14T23:33:05.648Z,102035.22
2018-11-14T23:35:34.868Z,102026.12
2018-11-14T23:38:05.847Z,102030.03
2018-11-14T23:40:35.279Z,102028.14
2018-11-14T23:43:05.215Z,102024.09
2018-11-14T23:45:34.499Z,102021.03
2018-11-14T23:48:04.015Z,102027.19
2018-11-14T23:50:33.514Z,102021.19
2018-11-14T23:53:03.671Z,102028.63
2018-11-14T23:55:34.151Z,102027.91
2018-11-14T23:58:03.685Z,102026.37
